createdAt,value
2024-02-22T00:00:07.727Z,36.55
2024-02-22T00:00:39.314Z,36.60
2024-02-22T00:01:10.957Z,36.48
2024-02-22T00:01:42.465Z,36.42
2024-02-22T00:02:14.020Z,36.30
2024-02-22T00:02:45.618Z,36.63
2024-02-22T00:03:17.122Z,36.68
2024-02-22T00:03:48.721Z,36.44
2024-02-22T00:04:20.203Z,36.54
2024-02-22T00:04:52.001Z,36.54
2024-02-22T00:05:23.808Z,36.45
2024-02-22T00:05:55.683Z,36.33
2024-02-22T00:06:27.309Z,36.45
2024-02-22T00:06:58.942Z,36.53
2024-02-22T00:07:30.582Z,36.46
2024-02-22T00:08:02.205Z,36.52
2024-02-22T00:08:33.824Z,36.59
2024-02-22T00:09:05.332Z,36.56
2024-02-22T00:09:36.882Z,36.61
2024-02-22T00:10:08.441Z,36.67
2024-02-22T00:10:40.205Z,36.42
2024-02-22T00:11:11.804Z,36.63
2024-02-22T00:11:43.468Z,36.75
2024-02-22T00:12:14.965Z,36.54
2024-02-22T00:12:46.614Z,36.86
2024-02-22T00:13:18.121Z,36.85
2024-02-22T00:13:49.636Z,36.63
2024-02-22T00:14:21.146Z,36.84
2024-02-22T00:14:52.665Z,36.80
2024-02-22T00:15:24.332Z,36.73
2024-02-22T00:15:55.813Z,36.71
2024-02-22T00:16:27.450Z,36.62
2024-02-22T00:16:59.029Z,36.65
2024-02-22T00:17:30.567Z,36.83
2024-02-22T00:18:02.149Z,36.74
2024-02-22T00:18:33.651Z,36.83
2024-02-22T00:19:05.422Z,36.87
2024-02-22T00:19:37.112Z,36.65
2024-02-22T00:20:08.740Z,36.78
2024-02-22T00:20:40.218Z,36.72
2024-02-22T00:21:11.831Z,36.73
2024-02-22T00:21:43.479Z,36.59
2024-02-22T00:22:15.050Z,36.68
2024-02-22T00:22:46.731Z,36.83
2024-02-22T00:23:18.302Z,36.86
2024-02-22T00:23:49.867Z,36.93
2024-02-22T00:24:21.428Z,36.67
2024-02-22T00:24:55.447Z,36.60
2024-02-22T00:25:27.037Z,36.71
2024-02-22T00:25:58.563Z,36.88
2024-02-22T00:26:30.051Z,36.77
2024-02-22T00:27:01.511Z,36.79
2024-02-22T00:27:33.036Z,36.86
2024-02-22T00:28:04.537Z,36.88
2024-02-22T00:28:36.126Z,36.86
2024-02-22T00:29:07.667Z,36.78
2024-02-22T00:29:39.198Z,36.77
2024-02-22T00:30:10.729Z,36.96
2024-02-22T00:30:42.272Z,36.68
2024-02-22T00:31:13.742Z,36.72
2024-02-22T00:31:45.305Z,36.73
2024-02-22T00:32:16.857Z,36.73
2024-02-22T00:32:48.451Z,36.93
2024-02-22T00:33:19.925Z,36.96
2024-02-22T00:33:51.489Z,36.97
2024-02-22T00:34:23.077Z,36.91
2024-02-22T00:34:55.887Z,36.78
2024-02-22T00:35:27.816Z,36.82
2024-02-22T00:35:59.404Z,36.91
2024-02-22T00:36:30.869Z,36.86
2024-02-22T00:37:02.357Z,36.78
2024-02-22T00:37:33.940Z,36.81
2024-02-22T00:38:05.494Z,36.86
2024-02-22T00:38:37.123Z,36.84
2024-02-22T00:39:08.702Z,37.00
2024-02-22T00:39:40.378Z,36.99
2024-02-22T00:40:12.122Z,36.94
2024-02-22T00:40:43.914Z,36.96
2024-02-22T00:41:15.780Z,37.08
2024-02-22T00:41:47.384Z,37.07
2024-02-22T00:42:18.888Z,37.00
2024-02-22T00:42:50.475Z,37.13
2024-02-22T00:43:22.036Z,37.03
2024-02-22T00:43:53.671Z,37.03
2024-02-22T00:44:25.256Z,36.98
2024-02-22T00:44:56.841Z,36.92
2024-02-22T00:45:28.395Z,37.01
2024-02-22T00:45:59.928Z,36.88
2024-02-22T00:46:31.505Z,36.91
2024-02-22T00:47:03.143Z,36.83
2024-02-22T00:47:34.733Z,37.01
2024-02-22T00:48:06.395Z,36.88
2024-02-22T00:48:38.028Z,36.92
2024-02-22T00:49:09.680Z,36.78
2024-02-22T00:49:41.411Z,36.84
2024-02-22T00:50:13.212Z,36.91
2024-02-22T00:50:45.079Z,36.90
2024-02-22T00:51:16.693Z,36.93
2024-02-22T00:51:48.253Z,37.02
2024-02-22T00:52:19.800Z,37.04
2024-02-22T00:52:51.326Z,37.03
2024-02-22T00:53:22.837Z,37.04
2024-02-22T00:53:54.444Z,37.03
2024-02-22T00:54:25.961Z,37.03
2024-02-22T00:54:57.464Z,37.09
2024-02-22T00:55:28.980Z,37.17
2024-02-22T00:56:00.533Z,37.02
2024-02-22T00:56:32.163Z,37.13
2024-02-22T00:57:03.743Z,37.12
2024-02-22T00:57:35.594Z,37.04
2024-02-22T00:58:09.626Z,36.95
2024-02-22T00:58:41.697Z,36.91
2024-02-22T00:59:13.580Z,37.00
2024-02-22T00:59:45.169Z,36.88
2024-02-22T01:00:16.825Z,37.01
2024-02-22T01:00:48.399Z,37.03
2024-02-22T01:01:20.109Z,37.10
2024-02-22T01:01:51.912Z,37.13
2024-02-22T01:02:23.549Z,37.01
2024-02-22T01:02:55.103Z,37.15
2024-02-22T01:03:26.712Z,37.09
2024-02-22T01:03:58.362Z,36.90
2024-02-22T01:04:29.971Z,37.19
2024-02-22T01:05:01.766Z,36.97
2024-02-22T01:05:33.675Z,37.18
2024-02-22T01:06:05.367Z,37.27
2024-02-22T01:06:36.980Z,37.09
2024-02-22T01:07:08.691Z,37.03
2024-02-22T01:07:40.257Z,37.29
2024-02-22T01:08:12.011Z,37.05
2024-02-22T01:08:43.639Z,37.33
2024-02-22T01:09:15.171Z,37.16
2024-02-22T01:09:46.704Z,36.97
2024-02-22T01:10:18.224Z,37.23
2024-02-22T01:10:49.861Z,36.95
2024-02-22T01:11:21.678Z,37.25
2024-02-22T01:11:53.267Z,36.96
2024-02-22T01:12:24.944Z,37.05
2024-02-22T01:12:56.535Z,37.17
2024-02-22T01:13:28.069Z,37.15
2024-02-22T01:13:59.611Z,37.33
2024-02-22T01:14:31.211Z,37.23
2024-02-22T01:15:02.829Z,37.12
2024-02-22T01:15:36.911Z,37.26
2024-02-22T01:16:09.067Z,37.27
2024-02-22T01:16:40.743Z,37.15
2024-02-22T01:17:12.344Z,37.35
2024-02-22T01:17:43.921Z,37.18
2024-02-22T01:18:15.489Z,37.33
2024-02-22T01:18:47.054Z,37.29
2024-02-22T01:19:18.702Z,37.29
2024-02-22T01:19:50.335Z,37.21
2024-02-22T01:20:21.963Z,37.14
2024-02-22T01:20:53.538Z,36.91
2024-02-22T01:21:25.120Z,37.18
2024-02-22T01:21:56.746Z,37.12
2024-02-22T01:22:28.294Z,37.17
2024-02-22T01:23:00.003Z,37.11
2024-02-22T01:23:31.585Z,37.28
2024-02-22T01:24:03.104Z,37.29
2024-02-22T01:24:34.633Z,37.22
2024-02-22T01:25:06.096Z,37.00
2024-02-22T01:25:37.925Z,37.21
2024-02-22T01:26:09.638Z,37.18
2024-02-22T01:26:41.351Z,37.16
2024-02-22T01:27:13.058Z,37.29
2024-02-22T01:27:44.562Z,37.14
2024-02-22T01:28:16.043Z,37.10
2024-02-22T01:28:47.585Z,37.06
2024-02-22T01:29:19.208Z,37.13
2024-02-22T01:29:50.805Z,37.25
2024-02-22T01:30:22.581Z,37.26
2024-02-22T01:30:54.390Z,37.23
2024-02-22T01:31:26.001Z,37.14
2024-02-22T01:31:57.554Z,37.09
2024-02-22T01:32:29.099Z,37.24
2024-02-22T01:33:00.790Z,37.17
2024-02-22T01:33:32.420Z,37.18
2024-02-22T01:34:04.019Z,37.13
2024-02-22T01:34:35.504Z,37.22
2024-02-22T01:35:07.215Z,37.09
2024-02-22T01:35:38.829Z,37.19
2024-02-22T01:36:10.368Z,37.25
2024-02-22T01:36:41.919Z,37.28
2024-02-22T01:37:13.438Z,37.24
2024-02-22T01:37:45.001Z,37.27
2024-02-22T01:38:16.572Z,37.12
2024-02-22T01:38:48.160Z,37.21
2024-02-22T01:39:19.645Z,37.33
2024-02-22T01:39:51.175Z,37.22
2024-02-22T01:40:22.706Z,37.19
2024-02-22T01:40:54.277Z,37.29
2024-02-22T01:41:28.855Z,37.30
2024-02-22T01:42:00.834Z,37.35
2024-02-22T01:42:32.365Z,37.31
2024-02-22T01:43:03.882Z,37.40
2024-02-22T01:43:35.512Z,37.31
2024-02-22T01:44:07.206Z,37.31
2024-02-22T01:44:38.896Z,37.28
2024-02-22T01:45:10.546Z,37.34
2024-02-22T01:45:42.105Z,37.40
2024-02-22T01:46:13.651Z,37.46
2024-02-22T01:46:45.277Z,37.21
2024-02-22T01:47:16.882Z,37.33
2024-02-22T01:47:48.510Z,37.32
2024-02-22T01:48:20.080Z,37.37
2024-02-22T01:48:51.764Z,37.34
2024-02-22T01:49:23.524Z,37.27
2024-02-22T01:49:55.040Z,37.43
2024-02-22T01:50:26.547Z,37.36
2024-02-22T01:50:58.132Z,37.28
2024-02-22T01:51:29.626Z,37.32
2024-02-22T01:52:01.153Z,37.37
2024-02-22T01:52:32.650Z,37.33
2024-02-22T01:53:04.291Z,37.55
2024-02-22T01:53:35.921Z,37.49
2024-02-22T01:54:07.450Z,37.36
2024-02-22T01:54:39.078Z,37.45
2024-02-22T01:55:10.977Z,37.38
2024-02-22T01:55:42.653Z,37.31
2024-02-22T01:56:14.199Z,37.39
2024-02-22T01:56:45.776Z,37.38
2024-02-22T01:57:17.228Z,37.23
2024-02-22T01:57:48.733Z,37.41
2024-02-22T01:58:20.235Z,37.29
2024-02-22T01:58:51.844Z,37.29
2024-02-22T01:59:23.507Z,37.55
2024-02-22T01:59:55.098Z,37.20
2024-02-22T02:00:26.698Z,37.32
2024-02-22T02:00:58.330Z,37.34
2024-02-22T02:01:29.856Z,37.39
2024-02-22T02:02:01.554Z,37.41
2024-02-22T02:02:33.159Z,37.42
2024-02-22T02:03:04.773Z,37.28
2024-02-22T02:03:36.303Z,37.41
2024-02-22T02:04:07.800Z,37.24
2024-02-22T02:04:39.510Z,37.33
2024-02-22T02:05:11.037Z,37.32
2024-02-22T02:05:42.679Z,37.21
2024-02-22T02:06:14.130Z,37.43
2024-02-22T02:06:45.662Z,37.42
2024-02-22T02:07:17.171Z,37.40
2024-02-22T02:07:48.696Z,37.34
2024-02-22T02:08:20.244Z,37.46
2024-02-22T02:08:51.792Z,37.56
2024-02-22T02:09:23.293Z,37.47
2024-02-22T02:09:54.800Z,37.54
2024-02-22T02:10:26.294Z,37.54
2024-02-22T02:10:57.961Z,37.37
2024-02-22T02:11:29.570Z,37.41
2024-02-22T02:12:01.086Z,37.39
2024-02-22T02:12:32.530Z,37.57
2024-02-22T02:13:04.034Z,37.55
2024-02-22T02:13:35.590Z,37.61
2024-02-22T02:14:07.150Z,37.59
2024-02-22T02:14:38.642Z,37.45
2024-02-22T02:15:10.192Z,37.43
2024-02-22T02:15:41.656Z,37.66
2024-02-22T02:16:13.282Z,37.36
2024-02-22T02:16:44.803Z,37.40
2024-02-22T02:17:16.312Z,37.48
2024-02-22T02:17:47.796Z,37.35
2024-02-22T02:18:19.414Z,37.48
2024-02-22T02:18:51.085Z,37.41
2024-02-22T02:19:22.666Z,37.60
2024-02-22T02:19:54.200Z,37.48
2024-02-22T02:20:25.737Z,37.36
2024-02-22T02:20:57.236Z,37.50
2024-02-22T02:21:28.646Z,37.41
2024-02-22T02:22:00.122Z,37.47
2024-02-22T02:22:31.651Z,37.50
2024-02-22T02:23:03.218Z,37.45
2024-02-22T02:23:34.744Z,37.44
2024-02-22T02:24:06.229Z,37.52
2024-02-22T02:24:37.735Z,37.56
2024-02-22T02:25:09.180Z,37.45
2024-02-22T02:25:40.754Z,37.44
2024-02-22T02:26:12.573Z,37.46
2024-02-22T02:26:44.185Z,37.42
2024-02-22T02:27:15.696Z,37.46
2024-02-22T02:27:47.183Z,37.46
2024-02-22T02:28:18.729Z,37.41
2024-02-22T02:28:50.174Z,37.53
2024-02-22T02:29:21.678Z,37.58
2024-02-22T02:29:53.149Z,37.60
2024-02-22T02:30:24.593Z,37.61
2024-02-22T02:30:56.051Z,37.48
2024-02-22T02:31:27.520Z,37.60
2024-02-22T02:31:58.985Z,37.63
2024-02-22T02:32:30.525Z,37.78
2024-02-22T02:33:02.135Z,37.73
2024-02-22T02:33:33.753Z,37.70
2024-02-22T02:34:05.262Z,37.61
2024-02-22T02:34:36.778Z,37.65
2024-02-22T02:35:08.331Z,37.72
2024-02-22T02:35:39.878Z,37.74
2024-02-22T02:36:11.431Z,37.73
2024-02-22T02:36:42.862Z,37.49
2024-02-22T02:37:14.386Z,37.70
2024-02-22T02:37:45.845Z,37.49
2024-02-22T02:38:17.394Z,37.63
2024-02-22T02:38:48.834Z,37.52
2024-02-22T02:39:20.325Z,37.58
2024-02-22T02:39:51.746Z,37.54
2024-02-22T02:40:23.226Z,37.48
2024-02-22T02:40:54.732Z,37.51
2024-02-22T02:41:26.214Z,37.48
2024-02-22T02:41:57.759Z,37.52
2024-02-22T02:42:29.286Z,37.55
2024-02-22T02:43:00.772Z,37.59
2024-02-22T02:43:32.340Z,37.66
2024-02-22T02:44:03.941Z,37.73
2024-02-22T02:44:35.440Z,37.63
2024-02-22T02:45:06.918Z,37.53
2024-02-22T02:45:38.446Z,37.68
2024-02-22T02:46:09.997Z,37.50
2024-02-22T02:46:41.519Z,37.65
2024-02-22T02:47:13.278Z,37.62
2024-02-22T02:47:44.883Z,37.81
2024-02-22T02:48:16.376Z,37.78
2024-02-22T02:48:47.941Z,37.71
2024-02-22T02:49:19.425Z,37.53
2024-02-22T02:49:50.983Z,37.69
2024-02-22T02:50:22.589Z,37.68
2024-02-22T02:50:54.137Z,37.63
2024-02-22T02:51:25.654Z,37.75
2024-02-22T02:51:57.151Z,37.73
2024-02-22T02:52:28.680Z,37.69
2024-02-22T02:53:00.285Z,37.69
2024-02-22T02:53:31.814Z,37.74
2024-02-22T02:54:03.356Z,37.78
2024-02-22T02:54:34.801Z,37.74
2024-02-22T02:55:06.240Z,37.79
2024-02-22T02:55:37.775Z,37.81
2024-02-22T02:56:09.415Z,37.90
2024-02-22T02:56:40.893Z,37.73
2024-02-22T02:57:12.352Z,37.88
2024-02-22T02:57:43.835Z,37.80
2024-02-22T02:58:15.301Z,37.73
2024-02-22T02:58:46.913Z,37.81
2024-02-22T02:59:18.469Z,37.79
2024-02-22T02:59:50.027Z,37.71
2024-02-22T03:00:21.490Z,37.68
2024-02-22T03:00:52.999Z,37.85
2024-02-22T03:01:24.502Z,37.76
2024-02-22T03:01:56.119Z,37.78
2024-02-22T03:02:27.641Z,37.70
2024-02-22T03:02:59.166Z,37.89
2024-02-22T03:03:30.660Z,37.70
2024-02-22T03:04:02.156Z,37.80
2024-02-22T03:04:33.896Z,37.74
2024-02-22T03:05:05.560Z,37.72
2024-02-22T03:05:37.137Z,37.72
2024-02-22T03:06:08.675Z,37.59
2024-02-22T03:06:40.237Z,37.72
2024-02-22T03:07:11.733Z,37.76
2024-02-22T03:07:43.249Z,37.71
2024-02-22T03:08:14.774Z,37.81
2024-02-22T03:08:46.229Z,37.92
2024-02-22T03:09:17.722Z,37.83
2024-02-22T03:09:49.235Z,37.80
2024-02-22T03:10:20.853Z,37.93
2024-02-22T03:10:52.417Z,37.85
2024-02-22T03:11:24.031Z,37.94
2024-02-22T03:11:55.640Z,37.65
2024-02-22T03:12:27.105Z,37.92
2024-02-22T03:12:58.528Z,37.92
2024-02-22T03:13:30.066Z,37.90
2024-02-22T03:14:01.660Z,37.81
2024-02-22T03:14:33.240Z,37.74
2024-02-22T03:15:04.723Z,37.72
2024-02-22T03:15:36.217Z,37.84
2024-02-22T03:16:07.708Z,37.82
2024-02-22T03:16:39.327Z,37.87
2024-02-22T03:17:11.030Z,37.80
2024-02-22T03:17:42.708Z,38.04
2024-02-22T03:18:14.335Z,37.86
2024-02-22T03:18:46.066Z,38.06
2024-02-22T03:19:17.586Z,37.73
2024-02-22T03:19:49.136Z,37.83
2024-02-22T03:20:20.853Z,37.85
2024-02-22T03:20:52.383Z,37.87
2024-02-22T03:21:23.843Z,37.72
2024-02-22T03:21:55.289Z,37.91
2024-02-22T03:22:26.838Z,37.79
2024-02-22T03:22:58.300Z,37.80
2024-02-22T03:23:29.866Z,37.86
2024-02-22T03:24:01.363Z,37.92
2024-02-22T03:24:32.838Z,37.81
2024-02-22T03:25:04.450Z,37.82
2024-02-22T03:25:35.983Z,37.88
2024-02-22T03:26:07.634Z,37.69
2024-02-22T03:26:39.151Z,37.83
2024-02-22T03:27:10.673Z,38.00
2024-02-22T03:27:42.155Z,37.92
2024-02-22T03:28:13.709Z,37.92
2024-02-22T03:28:45.235Z,37.94
2024-02-22T03:29:16.856Z,37.80
2024-02-22T03:29:48.435Z,37.81
2024-02-22T03:30:19.902Z,37.92
2024-02-22T03:30:51.401Z,37.82
2024-02-22T03:31:22.870Z,37.95
2024-02-22T03:31:54.437Z,37.76
2024-02-22T03:32:25.959Z,37.82
2024-02-22T03:32:57.470Z,37.86
2024-02-22T03:33:29.184Z,37.81
2024-02-22T03:34:00.854Z,37.71
2024-02-22T03:34:32.583Z,37.58
2024-02-22T03:35:04.220Z,37.75
2024-02-22T03:35:35.782Z,37.73
2024-02-22T03:36:07.273Z,37.75
2024-02-22T03:36:38.736Z,37.65
2024-02-22T03:37:10.186Z,37.67
2024-02-22T03:37:41.767Z,37.84
2024-02-22T03:38:13.327Z,37.81
2024-02-22T03:38:44.816Z,37.70
2024-02-22T03:39:16.307Z,37.97
2024-02-22T03:39:47.779Z,37.85
2024-02-22T03:40:19.193Z,37.66
2024-02-22T03:40:50.721Z,37.81
2024-02-22T03:41:22.238Z,37.91
2024-02-22T03:41:53.702Z,37.81
2024-02-22T03:42:25.587Z,37.95
2024-02-22T03:42:56.989Z,37.81
2024-02-22T03:43:28.465Z,37.88
2024-02-22T03:44:00.029Z,37.99
2024-02-22T03:44:31.612Z,37.96
2024-02-22T03:45:03.190Z,38.03
2024-02-22T03:45:34.685Z,38.04
2024-02-22T03:46:06.163Z,37.98
2024-02-22T03:46:37.656Z,37.83
2024-02-22T03:47:09.172Z,37.94
2024-02-22T03:47:40.750Z,37.79
2024-02-22T03:48:12.305Z,37.85
2024-02-22T03:48:43.793Z,37.84
2024-02-22T03:49:15.343Z,37.89
2024-02-22T03:49:46.841Z,37.77
2024-02-22T03:50:18.426Z,37.96
2024-02-22T03:50:49.902Z,37.75
2024-02-22T03:51:21.436Z,37.87
2024-02-22T03:51:52.936Z,37.68
2024-02-22T03:52:24.443Z,37.91
2024-02-22T03:52:56.121Z,37.88
2024-02-22T03:53:27.625Z,37.88
2024-02-22T03:53:59.126Z,37.82
2024-02-22T03:54:30.634Z,37.92
2024-02-22T03:55:02.239Z,37.77
2024-02-22T03:55:33.731Z,37.81
2024-02-22T03:56:05.274Z,37.81
2024-02-22T03:56:36.823Z,37.84
2024-02-22T03:57:08.341Z,37.77
2024-02-22T03:57:39.765Z,37.78
2024-02-22T03:58:11.181Z,37.73
2024-02-22T03:58:42.665Z,37.90
2024-02-22T03:59:14.207Z,37.87
2024-02-22T03:59:45.817Z,37.84
2024-02-22T04:00:17.331Z,37.87
2024-02-22T04:00:48.896Z,37.88
2024-02-22T04:01:20.688Z,38.01
2024-02-22T04:01:52.266Z,37.79
2024-02-22T04:02:23.826Z,38.04
2024-02-22T04:02:55.380Z,37.97
2024-02-22T04:03:26.859Z,38.00
2024-02-22T04:03:58.381Z,38.11
2024-02-22T04:04:29.956Z,37.96
2024-02-22T04:05:01.588Z,38.04
2024-02-22T04:05:33.342Z,37.91
2024-02-22T04:06:04.809Z,38.01
2024-02-22T04:06:39.525Z,38.05
2024-02-22T04:07:11.559Z,38.13
2024-02-22T04:07:43.053Z,37.97
2024-02-22T04:08:14.576Z,38.03
2024-02-22T04:08:46.133Z,37.85
2024-02-22T04:09:17.597Z,37.92
2024-02-22T04:09:49.087Z,37.93
2024-02-22T04:10:20.591Z,37.97
2024-02-22T04:10:52.157Z,37.95
2024-02-22T04:11:23.781Z,38.10
2024-02-22T04:11:55.338Z,38.11
2024-02-22T04:12:26.870Z,38.05
2024-02-22T04:12:58.338Z,38.13
2024-02-22T04:13:29.826Z,38.13
2024-02-22T04:14:01.284Z,38.09
2024-02-22T04:14:32.780Z,37.95
2024-02-22T04:15:04.297Z,38.08
2024-02-22T04:15:35.741Z,38.04
2024-02-22T04:16:07.226Z,38.08
2024-02-22T04:16:38.698Z,38.14
2024-02-22T04:17:10.386Z,38.06
2024-02-22T04:17:42.027Z,38.14
2024-02-22T04:18:13.675Z,38.04
2024-02-22T04:18:45.503Z,38.06
2024-02-22T04:19:19.932Z,37.92
2024-02-22T04:19:51.825Z,38.12
2024-02-22T04:20:23.449Z,38.02
2024-02-22T04:20:54.945Z,37.96
2024-02-22T04:21:26.446Z,38.11
2024-02-22T04:21:57.900Z,38.03
2024-02-22T04:22:29.664Z,38.02
2024-02-22T04:23:01.260Z,38.01
2024-02-22T04:23:32.721Z,38.03
2024-02-22T04:24:04.301Z,37.92
2024-02-22T04:24:35.806Z,38.05
2024-02-22T04:25:07.284Z,37.97
2024-02-22T04:25:38.712Z,37.93
2024-02-22T04:26:10.245Z,37.89
2024-02-22T04:26:41.731Z,37.86
2024-02-22T04:27:13.217Z,38.04
2024-02-22T04:27:44.713Z,37.96
2024-02-22T04:28:16.164Z,38.03
2024-02-22T04:28:47.816Z,38.08
2024-02-22T04:29:19.484Z,38.07
2024-02-22T04:29:50.980Z,38.02
2024-02-22T04:30:22.441Z,38.10
2024-02-22T04:30:53.990Z,37.93
2024-02-22T04:31:25.471Z,38.06
2024-02-22T04:31:57.002Z,38.15
2024-02-22T04:32:28.612Z,38.19
2024-02-22T04:33:00.208Z,38.15
2024-02-22T04:33:31.830Z,37.97
2024-02-22T04:34:03.414Z,38.18
2024-02-22T04:34:35.109Z,37.97
2024-02-22T04:35:06.761Z,37.98
2024-02-22T04:35:38.379Z,38.07
2024-02-22T04:36:09.927Z,37.92
2024-02-22T04:36:41.375Z,37.97
2024-02-22T04:37:12.845Z,38.11
2024-02-22T04:37:44.437Z,38.07
2024-02-22T04:38:16.114Z,38.13
2024-02-22T04:38:47.655Z,37.90
2024-02-22T04:39:19.253Z,38.11
2024-02-22T04:39:50.693Z,38.04
2024-02-22T04:40:22.140Z,38.04
2024-02-22T04:40:53.641Z,37.97
2024-02-22T04:41:25.183Z,38.05
2024-02-22T04:41:56.671Z,38.11
2024-02-22T04:42:28.153Z,38.10
2024-02-22T04:42:59.670Z,38.10
2024-02-22T04:43:31.246Z,38.01
2024-02-22T04:44:02.842Z,38.21
2024-02-22T04:44:34.477Z,38.06
2024-02-22T04:45:05.962Z,38.15
2024-02-22T04:45:37.488Z,38.07
2024-02-22T04:46:08.961Z,38.12
2024-02-22T04:46:40.474Z,37.94
2024-02-22T04:47:11.968Z,38.09
2024-02-22T04:47:43.598Z,38.08
2024-02-22T04:48:15.189Z,38.03
2024-02-22T04:48:46.736Z,38.13
2024-02-22T04:49:18.242Z,38.09
2024-02-22T04:49:49.759Z,38.03
2024-02-22T04:50:21.429Z,38.03
2024-02-22T04:50:52.906Z,37.99
2024-02-22T04:51:24.390Z,37.90
2024-02-22T04:51:55.869Z,38.00
2024-02-22T04:52:27.472Z,38.01
2024-02-22T04:52:58.915Z,38.04
2024-02-22T04:53:30.369Z,38.13
2024-02-22T04:54:01.836Z,37.90
2024-02-22T04:54:37.838Z,38.02
2024-02-22T04:55:12.815Z,38.01
2024-02-22T04:55:44.386Z,38.08
2024-02-22T04:56:16.010Z,38.04
2024-02-22T04:56:47.561Z,38.05
2024-02-22T04:57:19.195Z,37.96
2024-02-22T04:57:50.917Z,38.02
2024-02-22T04:58:22.394Z,38.20
2024-02-22T04:58:53.872Z,37.98
2024-02-22T04:59:25.517Z,38.14
2024-02-22T04:59:56.974Z,38.04
2024-02-22T05:00:28.475Z,38.08
2024-02-22T05:00:59.971Z,38.21
2024-02-22T05:01:31.696Z,38.19
2024-02-22T05:02:03.306Z,38.16
2024-02-22T05:02:34.845Z,38.02
2024-02-22T05:03:06.366Z,38.25
2024-02-22T05:03:37.879Z,38.01
2024-02-22T05:04:09.540Z,38.32
2024-02-22T05:04:41.100Z,38.15
2024-02-22T05:05:12.647Z,38.07
2024-02-22T05:05:44.278Z,38.30
2024-02-22T05:06:15.875Z,38.08
2024-02-22T05:06:47.392Z,38.04
2024-02-22T05:07:18.876Z,38.26
2024-02-22T05:07:50.333Z,38.18
2024-02-22T05:08:21.830Z,38.28
2024-02-22T05:08:53.316Z,38.22
2024-02-22T05:09:24.777Z,38.14
2024-02-22T05:09:56.230Z,38.29
2024-02-22T05:10:27.718Z,38.18
2024-02-22T05:10:59.314Z,38.22
2024-02-22T05:11:30.940Z,38.22
2024-02-22T05:12:02.541Z,38.16
2024-02-22T05:12:34.091Z,38.20
2024-02-22T05:13:05.554Z,38.19
2024-02-22T05:13:37.099Z,38.25
2024-02-22T05:14:08.628Z,38.26
2024-02-22T05:14:40.196Z,38.21
2024-02-22T05:15:11.739Z,38.28
2024-02-22T05:15:43.299Z,38.21
2024-02-22T05:16:14.697Z,38.18
2024-02-22T05:16:46.285Z,38.22
2024-02-22T05:17:17.885Z,38.29
2024-02-22T05:17:49.664Z,38.13
2024-02-22T05:18:21.321Z,38.14
2024-02-22T05:18:52.878Z,38.27
2024-02-22T05:19:24.443Z,38.17
2024-02-22T05:19:55.937Z,38.12
2024-02-22T05:20:27.479Z,38.21
2024-02-22T05:20:59.028Z,38.27
2024-02-22T05:21:30.513Z,38.14
2024-02-22T05:22:01.972Z,38.17
2024-02-22T05:22:33.596Z,38.27
2024-02-22T05:23:05.101Z,38.19
2024-02-22T05:23:36.686Z,38.17
2024-02-22T05:24:08.109Z,38.11
2024-02-22T05:24:39.671Z,38.14
2024-02-22T05:25:11.188Z,38.17
2024-02-22T05:25:42.724Z,38.17
2024-02-22T05:26:14.364Z,38.21
2024-02-22T05:26:45.864Z,38.13
2024-02-22T05:27:17.380Z,38.24
2024-02-22T05:27:48.865Z,38.25
2024-02-22T05:28:20.361Z,38.12
2024-02-22T05:28:51.964Z,38.11
2024-02-22T05:29:23.537Z,38.21
2024-02-22T05:29:55.048Z,38.11
2024-02-22T05:30:26.518Z,38.29
2024-02-22T05:30:58.046Z,38.21
2024-02-22T05:31:29.495Z,38.17
2024-02-22T05:32:01.133Z,38.19
2024-02-22T05:32:32.773Z,38.22
2024-02-22T05:33:04.384Z,38.15
2024-02-22T05:33:36.159Z,38.24
2024-02-22T05:34:07.802Z,38.23
2024-02-22T05:34:39.486Z,38.32
2024-02-22T05:35:11.199Z,38.22
2024-02-22T05:35:42.695Z,38.21
2024-02-22T05:36:14.176Z,38.36
2024-02-22T05:36:45.677Z,38.23
2024-02-22T05:37:17.131Z,38.34
2024-02-22T05:37:48.641Z,38.25
2024-02-22T05:38:20.273Z,38.14
2024-02-22T05:38:51.863Z,38.28
2024-02-22T05:39:26.217Z,38.20
2024-02-22T05:39:57.698Z,38.08
2024-02-22T05:40:29.408Z,38.12
2024-02-22T05:41:00.912Z,38.10
2024-02-22T05:41:32.533Z,38.12
2024-02-22T05:42:04.053Z,38.03
2024-02-22T05:42:35.464Z,38.09
2024-02-22T05:43:06.953Z,38.15
2024-02-22T05:43:38.634Z,38.12
2024-02-22T05:44:10.263Z,38.04
2024-02-22T05:44:41.785Z,38.11
2024-02-22T05:45:13.308Z,37.95
2024-02-22T05:45:44.835Z,38.20
2024-02-22T05:46:16.269Z,38.19
2024-02-22T05:46:47.779Z,38.25
2024-02-22T05:47:19.402Z,38.19
2024-02-22T05:47:50.897Z,38.23
2024-02-22T05:48:22.544Z,38.19
2024-02-22T05:48:54.155Z,38.00
2024-02-22T05:49:25.714Z,38.10
2024-02-22T05:49:57.239Z,38.21
2024-02-22T05:50:28.783Z,38.23
2024-02-22T05:51:00.236Z,38.31
2024-02-22T05:51:31.711Z,38.07
2024-02-22T05:52:03.164Z,38.22
2024-02-22T05:52:34.668Z,38.03
2024-02-22T05:53:06.208Z,38.22
2024-02-22T05:53:37.776Z,38.23
2024-02-22T05:54:09.281Z,38.11
2024-02-22T05:54:40.746Z,38.20
2024-02-22T05:55:12.185Z,38.27
2024-02-22T05:55:43.672Z,38.21
2024-02-22T05:56:15.224Z,38.29
2024-02-22T05:56:46.695Z,38.38
2024-02-22T05:57:18.155Z,38.20
2024-02-22T05:57:49.617Z,38.28
2024-02-22T05:58:21.095Z,38.20
2024-02-22T05:58:52.600Z,38.28
2024-02-22T05:59:24.179Z,38.33
2024-02-22T05:59:55.841Z,38.22
2024-02-22T06:00:27.335Z,38.22
2024-02-22T06:00:58.824Z,38.20
2024-02-22T06:01:30.435Z,38.31
2024-02-22T06:02:02.121Z,38.14
2024-02-22T06:02:33.826Z,38.27
2024-02-22T06:03:08.982Z,38.23
2024-02-22T06:03:42.110Z,38.35
2024-02-22T06:04:13.720Z,38.26
2024-02-22T06:04:45.333Z,38.04
2024-02-22T06:05:17.139Z,38.01
2024-02-22T06:05:48.723Z,38.20
2024-02-22T06:06:20.432Z,38.16
2024-02-22T06:06:51.926Z,38.11
2024-02-22T06:07:23.558Z,38.32
2024-02-22T06:07:55.132Z,38.20
2024-02-22T06:08:26.713Z,38.28
2024-02-22T06:08:58.210Z,38.19
2024-02-22T06:09:29.667Z,38.31
2024-02-22T06:10:01.085Z,38.31
2024-02-22T06:10:32.656Z,38.26
2024-02-22T06:11:04.333Z,38.36
2024-02-22T06:11:35.988Z,38.31
2024-02-22T06:12:07.665Z,38.18
2024-02-22T06:12:39.227Z,38.38
2024-02-22T06:13:10.761Z,38.30
2024-02-22T06:13:42.222Z,38.19
2024-02-22T06:14:13.814Z,38.27
2024-02-22T06:14:45.301Z,38.38
2024-02-22T06:15:16.852Z,38.34
2024-02-22T06:15:48.355Z,38.32
2024-02-22T06:16:19.844Z,38.34
2024-02-22T06:16:51.385Z,38.30
2024-02-22T06:17:23.026Z,38.42
2024-02-22T06:17:54.910Z,38.31
2024-02-22T06:18:26.477Z,38.45
2024-02-22T06:18:58.178Z,38.41
2024-02-22T06:19:29.716Z,38.21
2024-02-22T06:20:01.222Z,38.33
2024-02-22T06:20:32.888Z,38.52
2024-02-22T06:21:04.353Z,38.48
2024-02-22T06:21:36.032Z,38.43
2024-02-22T06:22:07.549Z,38.27
2024-02-22T06:22:39.014Z,38.39
2024-02-22T06:23:10.491Z,38.46
2024-02-22T06:23:41.973Z,38.36
2024-02-22T06:24:13.416Z,38.43
2024-02-22T06:24:44.849Z,38.28
2024-02-22T06:25:16.362Z,38.34
2024-02-22T06:25:47.786Z,38.50
2024-02-22T06:26:19.368Z,38.39
2024-02-22T06:26:50.917Z,38.34
2024-02-22T06:27:22.380Z,38.38
2024-02-22T06:27:53.854Z,38.27
2024-02-22T06:28:25.338Z,38.39
2024-02-22T06:28:56.923Z,38.38
2024-02-22T06:29:28.462Z,38.31
2024-02-22T06:29:59.935Z,38.26
2024-02-22T06:30:31.448Z,38.43
2024-02-22T06:31:02.963Z,38.31
2024-02-22T06:31:34.549Z,38.38
2024-02-22T06:32:06.123Z,38.31
2024-02-22T06:32:37.630Z,38.37
2024-02-22T06:33:09.179Z,38.49
2024-02-22T06:33:40.853Z,38.35
2024-02-22T06:34:12.395Z,38.39
2024-02-22T06:34:44.096Z,38.33
2024-02-22T06:35:15.903Z,38.25
2024-02-22T06:35:47.450Z,38.29
2024-02-22T06:36:18.922Z,38.26
2024-02-22T06:36:50.428Z,38.35
2024-02-22T06:37:23.084Z,38.30
2024-02-22T06:37:56.105Z,38.32
2024-02-22T06:38:27.568Z,38.38
2024-02-22T06:38:59.029Z,38.23
2024-02-22T06:39:30.493Z,38.23
2024-02-22T06:40:02.021Z,38.25
2024-02-22T06:40:33.560Z,38.38
2024-02-22T06:41:05.073Z,38.39
2024-02-22T06:41:36.571Z,38.25
2024-02-22T06:42:08.020Z,38.26
2024-02-22T06:42:39.457Z,38.25
2024-02-22T06:43:10.935Z,38.33
2024-02-22T06:43:42.491Z,38.26
2024-02-22T06:44:14.012Z,38.25
2024-02-22T06:44:45.513Z,38.29
2024-02-22T06:45:17.030Z,38.16
2024-02-22T06:45:48.549Z,38.26
2024-02-22T06:46:19.994Z,38.43
2024-02-22T06:46:51.469Z,38.34